Indio Rico, Argentina
Current Conditions -  °F | °C
As of 12:00 AM on Saturday 29 Nov 2014 (Local Time) from SAZM Reporting Station
Clear Clear  
Wind Chill: 66°   Ceiling: Unl
Heat Index: 66°   Visibility: 6mi
Dew Point: 57°   Wind: 9mph
Humidity: 73%   Direction: 20°NNE
Pressure: 29.88"   Gusts: NA
Location:  38.32°S, 60.88°W
Report Text: SAZM 290300Z 02008KT CAVOK 19/14 Q1012
Loading
Personal Weather Stations






























Interactive Weather Map New forecast layout! Learn more

10-Day Weather Forecast

Advertisements
Track Severe Weather on mobile